Cinebar, Washington
Current Conditions -  °F | °C
As of 4:15 AM on Thursday 23 Oct 2014 (Local Time) from KCLS Reporting Station
Light Rain Light Rain  
Wind Chill: 54°   Ceiling: 3700
Heat Index: 54°   Visibility: 9mi
Dew Point: 52°   Wind: 0mph
Humidity: 94%   Direction: NA
Pressure: 29.73"   Gusts: NA
Location:  46.6°N, 122.53°W
Report Text: KCLS 231115Z AUTO 00000KT 9SM -RA SCT015 BKN037 OVC044 12/11 A2973 RMK AO2
Loading
Personal Weather Stations






























Interactive Weather Map
Tropical Storm Tracking
New forecast layout! Learn more

10-Day Weather Forecast

Advertisements
Track Severe Weather on mobile